Sierra Vista, AZ (85636)

3:11 AM MST on September 02, 2015 (GMT -0700)
East Calle de la Manzana | | Change Station
CLOSE
Current Station
Personal Weather Station
Location: Hereford, AZ
Elevation: 4606 ft
Nearby Weather Stations

Elev 4606 ft 31.45 °N, 110.22 °W | Updated 10 seconds ago

Mostly Cloudy
Mostly Cloudy
66.9 °F
Feels Like 66.9 °F
N
0.0
Wind Variable Wind from NNE
Gusts 1.0 mph

Today
High -- | Low -- °F
--% Chance of Precip.
Yesterday
High -- | Low -- °F
Precip. -- in
5:57 AM 6:43 PM
Waning Gibbous, 81% visible
Pressure 29.95 in
Visibility 10.0 miles
Clouds Mostly Cloudy 14000 ft
Overcast 16000 ft
Dew Point 58 °F
Humidity 72%
Rainfall 0.00 in
Snow Depth Not available.
UV 0 out of 12
Pollen 4.90 out of 12
Air Quality Not available.
Flu Activity Not available.
METAR KFHU 020958Z AUTO 15003KT 10SM BKN140 OVC160 21/13 A3018 RMK AO2 SLP142 T02140132 $
Pressure 29.95 in
Visibility 10.0 miles
Clouds Mostly Cloudy 14000 ft
Overcast 16000 ft
Dew Point 58 °F
Humidity 72%
Rainfall 0.00 in
Snow Depth Not available.
UV 0 out of 12
Pollen 4.90 out of 12
Air Quality Not available.
Flu Activity Not available.
METAR KFHU 020958Z AUTO 15003KT 10SM BKN140 OVC160 21/13 A3018 RMK AO2 SLP142 T02140132 $

10-Day Weather Forecast

×

Almanac

Astronomy

Sep. 02, 2015 Rise Set
Actual Time
Civil Twilight
Nautical Twilight
Astronomical Twilight
Moon
Length of Visible Light
Length of Day
Tomorrow will be .
, % of the Moon is Illuminated

Today's Extremes

State Highs State Lows

Community

WunderPhotos

Upload Photos

1,851,734 photos uploaded!

WunderBlogs® & News

Nearby

Air Quality

  Air Quality AQ Index Pollutant
Not available.

Snow Depth

Station Depth Elevation

Earthquake Activity

City Distance Mag. Time & Date
Minimum magnitude displayed is 2.5.

Coastal Water Temperatures

Place Temperature

Stations

Nearby Weather Stations

Station Location Temp. Windchill Dew Point Humidity Wind Precip. Elev Updated Type